Time;durP1;ratioP1;P1;durP2;ratioP2;P2;SDS_P1;SDS_P2;PMS_P1;PMS_P2;Temp;Humidity;BMP_temperature;BMP_pressure;BME280_temperature;BME280_humidity;BME280_pressure;Samples;Min_cycle;Max_cycle;Signal;HPM_P1;HPM_P2
2021/03/21 00:00:47;;;;;;;10.68;8.48;;;;;;;3.78;31.88;101419.19;5002261;28;99320;-72
2021/03/21 00:03:14;;;;;;;10.82;8.52;;;;;;;3.75;32.24;101420.72;4958666;28;99703;-72
2021/03/21 00:05:43;;;;;;;12.90;9.10;;;;;;;3.79;31.90;101435.84;4972205;28;97361;-72
2021/03/21 00:08:14;;;;;;;12.57;8.93;;;;;;;3.76;33.18;101419.88;4972922;28;96871;-72
2021/03/21 00:10:41;;;;;;;9.02;8.15;;;;;;;3.77;32.19;101433.13;4970181;28;98995;-72
2021/03/21 00:13:08;;;;;;;12.23;9.38;;;;;;;3.80;32.12;101421.88;4975215;28;99305;-71
2021/03/21 00:15:36;;;;;;;9.27;8.27;;;;;;;3.83;32.51;101419.41;4996540;28;96919;-71
2021/03/21 00:18:05;;;;;;;9.10;7.93;;;;;;;3.85;32.31;101426.59;5006488;27;97059;-71
2021/03/21 00:20:35;;;;;;;10.35;8.15;;;;;;;3.79;32.88;101428.88;5005420;28;99286;-71
2021/03/21 00:23:03;;;;;;;9.13;8.15;;;;;;;3.78;33.17;101419.19;4967321;28;99303;-71
2021/03/21 00:25:32;;;;;;;9.95;8.48;;;;;;;3.80;32.87;101417.53;4957775;28;96954;-71
2021/03/21 00:28:00;;;;;;;11.35;9.32;;;;;;;3.78;33.16;101410.34;4968186;28;96901;-71
2021/03/21 00:30:29;;;;;;;10.68;9.63;;;;;;;3.79;33.23;101415.72;4988199;28;100239;-71
2021/03/21 00:32:56;;;;;;;10.98;8.75;;;;;;;3.86;32.92;101402.06;4956824;28;98381;-71
2021/03/21 00:35:24;;;;;;;10.73;9.57;;;;;;;3.90;33.09;101413.69;5008164;28;96894;-71
2021/03/21 00:37:54;;;;;;;10.35;8.90;;;;;;;3.88;34.50;101416.25;4971379;28;96987;-71
2021/03/21 00:40:22;;;;;;;10.15;8.77;;;;;;;3.94;33.48;101413.06;4971878;28;96927;-71
2021/03/21 00:42:49;;;;;;;11.85;9.95;;;;;;;3.92;33.05;101401.53;4974418;28;100765;-72
2021/03/21 00:45:18;;;;;;;11.05;9.65;;;;;;;3.92;33.50;101396.25;4970257;28;96918;-72
2021/03/21 00:47:46;;;;;;;12.70;10.02;;;;;;;3.89;33.74;101391.75;4972360;28;96909;-71
2021/03/21 00:50:17;;;;;;;12.50;9.07;;;;;;;3.90;33.23;101388.28;4969571;28;98542;-72
2021/03/21 00:52:44;;;;;;;14.00;10.38;;;;;;;3.86;33.76;101367.84;4972432;28;97723;-72
2021/03/21 00:55:13;;;;;;;11.45;10.27;;;;;;;3.88;33.57;101379.38;4970053;28;96990;-71
2021/03/21 00:57:43;;;;;;;14.55;10.95;;;;;;;3.91;33.92;101371.69;4969801;28;97143;-72
2021/03/21 01:00:16;;;;;;;10.90;9.75;;;;;;;3.92;34.27;101362.94;4969980;28;99747;-72
2021/03/21 01:02:43;;;;;;;11.55;9.60;;;;;;;3.98;33.66;101355.41;4972432;28;99927;-72
2021/03/21 01:05:12;;;;;;;12.60;10.32;;;;;;;4.03;33.85;101348.66;5009321;28;97057;-72
2021/03/21 01:07:39;;;;;;;12.15;10.55;;;;;;;4.03;33.98;101348.66;4971927;28;97385;-72
2021/03/21 01:10:07;;;;;;;11.65;10.30;;;;;;;4.04;33.98;101349.59;5003298;28;97816;-72
2021/03/21 01:12:34;;;;;;;13.23;10.40;;;;;;;4.03;34.31;101343.41;5005069;27;96917;-72
2021/03/21 01:15:03;;;;;;;13.65;11.07;;;;;;;4.01;35.02;101350.31;4991367;28;96737;-72
2021/03/21 01:17:30;;;;;;;12.13;10.60;;;;;;;3.98;35.02;101339.63;5010822;28;96848;-72
2021/03/21 01:19:57;;;;;;;14.88;12.05;;;;;;;4.00;35.07;101331.78;4952962;28;99243;-72
2021/03/21 01:22:24;;;;;;;12.48;10.55;;;;;;;4.03;34.70;101332.88;4970678;28;96903;-72
2021/03/21 01:24:51;;;;;;;14.52;12.07;;;;;;;4.12;34.39;101321.94;5005858;27;97561;-72
2021/03/21 01:27:18;;;;;;;11.95;10.27;;;;;;;4.14;34.70;101313.31;4971541;28;96898;-72
2021/03/21 01:29:45;;;;;;;13.60;11.02;;;;;;;4.15;34.69;101311.59;4973657;28;96840;-72
2021/03/21 01:32:12;;;;;;;13.80;11.00;;;;;;;4.18;35.07;101310.03;5005767;28;97539;-72
2021/03/21 01:34:39;;;;;;;12.32;9.93;;;;;;;4.11;35.49;101302.63;4954785;28;97779;-72
2021/03/21 01:37:07;;;;;;;12.02;10.30;;;;;;;4.11;35.60;101289.44;4973358;28;96975;-72
2021/03/21 01:39:34;;;;;;;11.95;9.20;;;;;;;4.10;35.85;101292.88;4956610;28;96900;-72
2021/03/21 01:42:04;;;;;;;13.63;10.65;;;;;;;4.12;36.60;101291.25;4973411;28;98573;-72
2021/03/21 01:44:30;;;;;;;11.15;9.32;;;;;;;4.13;36.08;101286.88;5004908;28;96799;-72
2021/03/21 01:47:22;;;;;;;11.02;8.88;;;;;;;4.15;37.85;101301.94;4975374;28;97309;-71
2021/03/21 01:49:50;;;;;;;10.98;9.52;;;;;;;4.16;36.18;101277.44;4961803;28;96903;-71
2021/03/21 01:52:33;;;;;;;9.90;8.88;;;;;;;4.11;41.34;101284.19;5006344;28;99823;-72
2021/03/21 01:55:01;;;;;;;9.50;8.38;;;;;;;4.19;35.89;101272.31;4956112;28;96821;-72
2021/03/21 01:57:28;;;;;;;10.13;9.13;;;;;;;4.23;35.92;101263.75;4974835;28;96815;-72
2021/03/21 01:59:55;;;;;;;10.63;9.38;;;;;;;4.26;36.11;101264.75;5003679;28;96829;-72
2021/03/21 02:02:23;;;;;;;9.80;8.80;;;;;;;4.23;36.77;101253.22;4955607;28;97464;-72
2021/03/21 02:04:50;;;;;;;10.35;9.18;;;;;;;4.26;36.50;101278.84;4972516;28;97199;-72
2021/03/21 02:07:26;;;;;;;10.00;8.70;;;;;;;4.27;36.72;101254.28;4974293;28;97648;-72
2021/03/21 02:09:57;;;;;;;8.57;7.80;;;;;;;4.31;36.11;101244.81;4999985;28;100228;-72
2021/03/21 02:12:30;;;;;;;9.35;8.35;;;;;;;4.34;39.29;101235.34;4954771;28;98424;-72
2021/03/21 02:15:05;;;;;;;9.60;8.48;;;;;;;4.35;36.80;101237.19;4988652;28;97336;-72
2021/03/21 02:17:36;;;;;;;10.70;8.15;;;;;;;4.38;36.95;101233.78;4976506;28;97365;-73
2021/03/21 02:20:53;;;;;;;8.50;7.78;;;;;;;4.39;39.04;101232.97;4971915;28;97741;-72
2021/03/21 02:23:38;;;;;;;9.32;7.88;;;;;;;4.40;40.30;101230.41;4975232;28;97618;-72
2021/03/21 02:26:16;;;;;;;8.82;8.10;;;;;;;4.33;38.52;101223.03;4971667;28;96798;-72
2021/03/21 02:29:13;;;;;;;9.43;8.23;;;;;;;4.40;38.05;101226.88;5007126;28;96988;-72
2021/03/21 02:31:43;;;;;;;7.75;7.05;;;;;;;4.39;37.32;101214.53;4976025;28;97822;-72
2021/03/21 02:34:14;;;;;;;7.32;6.72;;;;;;;4.34;38.71;101211.66;4975167;28;99320;-72
2021/03/21 02:36:45;;;;;;;8.63;7.78;;;;;;;4.38;36.94;101211.00;4974154;28;97029;-72
2021/03/21 02:39:17;;;;;;;8.15;7.35;;;;;;;4.41;36.67;101200.59;4973895;28;96895;-72
2021/03/21 02:41:49;;;;;;;8.50;7.68;;;;;;;4.43;37.04;101187.50;4971939;28;97570;-72
2021/03/21 02:44:39;;;;;;;8.70;7.90;;;;;;;4.43;37.13;101185.78;5002193;28;98878;-72
2021/03/21 02:47:12;;;;;;;8.63;7.65;;;;;;;4.42;37.54;101177.78;4973325;28;96766;-72
2021/03/21 02:49:42;;;;;;;8.50;7.53;;;;;;;4.40;37.12;101159.28;4971703;28;97399;-72
2021/03/21 02:52:11;;;;;;;8.52;7.72;;;;;;;4.36;37.85;101152.03;5007727;28;99077;-72
2021/03/21 02:54:41;;;;;;;7.30;6.70;;;;;;;4.35;37.99;101149.34;4947884;28;97802;-72
2021/03/21 02:57:11;;;;;;;8.10;7.40;;;;;;;4.30;37.85;101133.28;4988272;28;97421;-72
2021/03/21 02:59:41;;;;;;;7.78;7.07;;;;;;;4.29;37.88;101130.56;4970288;28;97403;-72
2021/03/21 03:02:11;;;;;;;7.60;6.95;;;;;;;4.35;37.60;101133.53;4969885;28;99697;-72
2021/03/21 03:05:01;;;;;;;7.75;7.07;;;;;;;4.36;38.13;101135.31;4969340;28;100711;-72
2021/03/21 03:07:32;;;;;;;8.30;7.50;;;;;;;4.36;38.09;101117.78;4971167;28;97104;-72
2021/03/21 03:10:06;;;;;;;8.02;7.32;;;;;;;4.36;39.14;101128.31;5002366;28;96770;-72
2021/03/21 03:12:35;;;;;;;8.65;7.85;;;;;;;4.38;37.92;101118.78;4971421;28;99965;-72
2021/03/21 03:15:06;;;;;;;8.40;7.55;;;;;;;4.45;37.63;101118.25;4971704;28;98723;-72
2021/03/21 03:17:39;;;;;;;7.95;7.15;;;;;;;4.44;38.11;101115.56;4970860;28;97642;-73
2021/03/21 03:20:12;;;;;;;8.20;7.38;;;;;;;4.47;37.74;101107.78;4954887;28;97391;-72
2021/03/21 03:22:42;;;;;;;7.10;6.53;;;;;;;4.41;38.36;101105.75;4972310;28;98153;-72
2021/03/21 03:25:16;;;;;;;7.82;7.03;;;;;;;4.47;38.76;101115.69;5002955;28;97788;-72
2021/03/21 03:27:50;;;;;;;6.82;6.30;;;;;;;4.51;38.23;101109.75;4972712;28;96861;-72
2021/03/21 03:30:22;;;;;;;6.32;5.85;;;;;;;4.53;38.05;101121.28;4982305;28;96739;-72
2021/03/21 03:32:49;;;;;;;7.03;6.43;;;;;;;4.56;37.81;101106.53;4968061;28;97615;-72
2021/03/21 03:35:18;;;;;;;6.20;5.70;;;;;;;4.52;38.03;101107.19;4973421;28;96852;-72
2021/03/21 03:37:45;;;;;;;6.13;5.65;;;;;;;4.54;38.19;101112.53;4987847;28;96749;-72
2021/03/21 03:40:14;;;;;;;6.55;6.05;;;;;;;4.57;37.88;101103.06;4967252;28;96830;-72
2021/03/21 03:42:45;;;;;;;5.88;5.35;;;;;;;4.61;38.32;101104.13;4970792;28;99281;-72
2021/03/21 03:45:18;;;;;;;5.65;5.28;;;;;;;4.65;38.18;101095.53;5005481;28;96820;-72
2021/03/21 03:47:54;;;;;;;6.40;5.80;;;;;;;4.67;38.21;101091.25;5005334;27;96768;-72
2021/03/21 03:50:25;;;;;;;5.90;5.40;;;;;;;4.64;37.84;101081.47;4968498;28;97730;-72
2021/03/21 03:53:01;;;;;;;6.32;5.72;;;;;;;4.68;39.19;101083.41;4972642;28;97752;-72
2021/03/21 03:55:53;;;;;;;5.90;5.40;;;;;;;4.74;38.06;101065.25;4985348;28;97810;-72
2021/03/21 03:58:23;;;;;;;6.22;5.72;;;;;;;4.73;38.49;101066.09;5002355;28;96888;-72
2021/03/21 04:01:00;;;;;;;6.30;5.70;;;;;;;4.84;39.20;101066.63;4969976;28;97084;-72
2021/03/21 04:03:37;;;;;;;5.57;5.18;;;;;;;4.88;38.35;101069.47;4990714;28;97100;-72
2021/03/21 04:06:07;;;;;;;5.95;5.57;;;;;;;4.88;37.96;101066.84;4951599;28;99658;-72
2021/03/21 04:08:37;;;;;;;5.28;4.90;;;;;;;4.90;37.54;101064.28;4970415;28;96861;-72
2021/03/21 04:11:06;;;;;;;5.90;5.43;;;;;;;4.85;38.17;101055.22;5005940;28;97521;-72
2021/03/21 04:13:38;;;;;;;5.95;5.45;;;;;;;4.86;39.08;101049.16;4970638;28;98119;-72
2021/03/21 04:16:06;;;;;;;5.57;5.18;;;;;;;4.88;38.05;101032.56;4969000;28;97535;-72
2021/03/21 04:18:36;;;;;;;5.90;5.32;;;;;;;4.83;57.25;101043.72;4972553;28;96924;-72
2021/03/21 04:21:08;;;;;;;6.13;5.63;;;;;;;4.88;40.43;101037.81;5005933;27;97922;-72
2021/03/21 04:23:59;;;;;;;5.32;4.93;;;;;;;4.96;38.58;101035.56;4972187;28;98407;-72
2021/03/21 04:26:30;;;;;;;5.68;5.20;;;;;;;4.90;38.63;101035.28;5004615;28;98410;-72
2021/03/21 04:29:02;;;;;;;5.03;4.72;;;;;;;4.94;38.77;101030.22;4986729;28;97292;-72
2021/03/21 04:31:30;;;;;;;5.40;5.10;;;;;;;4.82;38.95;101029.66;4968948;28;96888;-72
2021/03/21 04:34:01;;;;;;;6.82;5.35;;;;;;;4.85;39.06;101026.22;4970102;28;100100;-72
2021/03/21 04:36:30;;;;;;;6.00;5.60;;;;;;;4.83;38.50;101022.63;4973750;28;96823;-72
2021/03/21 04:38:59;;;;;;;6.20;5.70;;;;;;;4.83;38.92;101012.97;4987983;28;97870;-72
2021/03/21 04:41:31;;;;;;;5.35;4.95;;;;;;;4.85;38.69;101007.78;4971676;28;97443;-72
2021/03/21 04:47:16;;;;;;;4.78;4.47;;;;;;;4.78;39.46;101005.69;4970507;28;100882;-72
2021/03/21 04:49:43;;;;;;;4.90;4.60;;;;;;;4.80;39.11;101011.94;4972490;28;96940;-72
2021/03/21 04:52:17;;;;;;;5.18;4.88;;;;;;;4.84;39.33;100992.81;4957205;28;96885;-72
2021/03/21 04:54:47;;;;;;;4.90;4.60;;;;;;;4.79;39.45;100999.59;4973905;28;97783;-72
2021/03/21 04:57:29;;;;;;;4.57;4.28;;;;;;;4.72;42.80;100986.94;4953988;28;100299;-72
2021/03/21 04:59:56;;;;;;;4.75;4.50;;;;;;;4.73;39.47;100994.03;4975765;28;97531;-72
2021/03/21 05:02:27;;;;;;;5.07;4.57;;;;;;;4.72;40.56;100992.19;4957706;28;96906;-72
2021/03/21 05:05:00;;;;;;;5.25;4.80;;;;;;;4.80;39.83;100985.56;5004760;28;98837;-72
2021/03/21 05:07:30;;;;;;;4.75;4.45;;;;;;;4.82;39.83;100984.81;4974158;28;96893;-72
2021/03/21 05:10:02;;;;;;;4.63;4.32;;;;;;;4.82;41.61;100976.00;4974299;28;96813;-72
2021/03/21 05:12:35;;;;;;;4.85;4.57;;;;;;;4.85;40.83;100976.13;4976427;28;98002;-72
2021/03/21 05:15:08;;;;;;;5.05;4.75;;;;;;;4.87;40.27;100966.56;5006074;28;96809;-72
2021/03/21 05:17:45;;;;;;;5.28;4.88;;;;;;;4.88;40.63;100973.66;4975748;28;98471;-72
2021/03/21 05:20:18;;;;;;;5.45;5.05;;;;;;;4.87;40.06;100971.84;4971523;28;96846;-73
2021/03/21 05:22:50;;;;;;;5.78;5.28;;;;;;;4.92;40.70;100967.69;4972153;28;97409;-72
2021/03/21 05:25:19;;;;;;;5.43;4.93;;;;;;;4.87;40.33;100959.56;4973477;28;97959;-72
2021/03/21 05:28:08;;;;;;;5.50;5.03;;;;;;;4.91;40.78;100976.44;4977187;28;96988;-73
2021/03/21 05:30:55;;;;;;;5.43;5.03;;;;;;;5.04;39.54;100949.84;4971486;28;97117;-72
2021/03/21 05:33:23;;;;;;;6.03;5.60;;;;;;;5.08;39.49;100963.22;4988269;28;96888;-72
2021/03/21 05:35:53;;;;;;;4.75;4.35;;;;;;;5.05;41.49;100959.53;4969341;28;96931;-72
2021/03/21 05:38:27;;;;;;;5.03;4.63;;;;;;;5.15;40.35;100938.06;5005484;27;98375;-72
2021/03/21 05:41:23;;;;;;;5.57;5.18;;;;;;;5.25;40.94;100949.94;4988244;28;96813;-72
2021/03/21 05:44:15;;;;;;;5.78;5.38;;;;;;;5.26;40.94;100947.34;5004991;28;97368;-72
2021/03/21 05:47:07;;;;;;;5.45;4.95;;;;;;;5.26;40.91;100935.88;4955200;28;97218;-72
2021/03/21 05:50:03;;;;;;;5.28;4.80;;;;;;;5.25;43.57;100928.81;4929931;28;99633;-73
2021/03/21 05:53:06;;;;;;;5.57;5.15;;;;;;;5.32;42.01;100925.63;4971355;28;97162;-72
2021/03/21 05:55:58;;;;;;;5.75;5.22;;;;;;;5.27;43.38;100930.69;5003776;28;97517;-72
2021/03/21 05:58:42;;;;;;;6.13;5.63;;;;;;;5.43;41.05;100930.50;4952098;28;98969;-72
2021/03/21 06:01:37;;;;;;;5.60;5.05;;;;;;;5.42;41.55;100928.72;4957171;28;98767;-72
2021/03/21 06:04:36;;;;;;;5.63;5.22;;;;;;;5.44;41.69;100920.88;4968980;28;97311;-72
2021/03/21 06:07:29;;;;;;;5.25;4.90;;;;;;;5.43;43.78;100925.22;4956450;28;97225;-72
2021/03/21 06:10:06;;;;;;;5.90;5.40;;;;;;;5.58;39.68;100925.91;4971721;28;100019;-72
2021/03/21 06:12:43;;;;;;;6.43;5.65;;;;;;;5.59;40.37;100929.47;4973060;28;97541;-73
2021/03/21 06:15:38;;;;;;;6.22;5.72;;;;;;;5.64;42.20;100926.19;4974548;28;96844;-72
2021/03/21 06:18:15;;;;;;;5.43;4.93;;;;;;;5.67;39.82;100928.03;4970759;28;96827;-72
2021/03/21 06:20:57;;;;;;;5.93;5.43;;;;;;;5.74;40.56;100925.72;5003885;28;97894;-72
2021/03/21 06:23:37;;;;;;;6.00;5.50;;;;;;;5.79;39.60;100926.84;4956750;28;98890;-72
2021/03/21 06:26:08;;;;;;;5.82;5.40;;;;;;;5.78;39.20;100925.03;4985324;28;96855;-72
2021/03/21 06:29:23;;;;;;;5.47;4.97;;;;;;;5.76;40.82;100926.69;4987334;28;96836;-72
2021/03/21 06:32:20;;;;;;;6.20;5.70;;;;;;;5.78;40.75;100935.59;4917835;28;98496;-72
2021/03/21 06:34:53;;;;;;;5.82;5.28;;;;;;;5.79;39.36;100925.94;4991375;28;99926;-72
2021/03/21 06:37:33;;;;;;;6.10;5.60;;;;;;;5.79;41.77;100932.13;4990814;28;96937;-72
2021/03/21 06:40:21;;;;;;;5.45;4.95;;;;;;;5.78;41.09;100918.84;4976438;28;97552;-73
2021/03/21 06:43:27;;;;;;;5.85;5.25;;;;;;;5.81;41.64;100930.44;4973690;28;96731;-71
2021/03/21 06:46:05;;;;;;;4.57;4.28;;;;;;;5.82;40.45;100937.53;4962401;28;97704;-73
2021/03/21 06:48:57;;;;;;;5.03;4.72;;;;;;;5.89;39.10;100944.88;4972760;28;96836;-72
2021/03/21 06:51:34;;;;;;;4.60;4.28;;;;;;;5.85;41.29;100940.28;5004567;27;96971;-73
2021/03/21 06:54:26;;;;;;;4.22;4.03;;;;;;;5.86;40.61;100926.28;4959894;28;99744;-73
2021/03/21 06:57:22;;;;;;;4.35;3.97;;;;;;;5.85;39.80;100952.63;4963837;28;97608;-73
2021/03/21 07:00:04;;;;;;;3.15;3.05;;;;;;;5.83;39.72;100923.47;5005005;28;97439;-73
2021/03/21 07:03:04;;;;;;;3.05;2.95;;;;;;;5.94;39.42;100932.75;4955787;28;96878;-73
2021/03/21 07:05:56;;;;;;;3.50;3.28;;;;;;;5.90;40.78;100928.16;4981735;28;99557;-73
2021/03/21 07:08:34;;;;;;;3.58;3.38;;;;;;;5.89;40.95;100938.69;4965193;28;99729;-72
2021/03/21 07:11:44;;;;;;;3.25;2.95;;;;;;;6.07;39.28;100926.22;5000525;28;97293;-73
2021/03/21 07:14:49;;;;;;;3.10;3.00;;;;;;;5.99;39.48;100927.69;4953402;28;97311;-72
2021/03/21 07:17:53;;;;;;;3.33;3.22;;;;;;;5.96;40.83;100933.72;4935142;28;97732;-74
2021/03/21 07:21:08;;;;;;;3.08;2.90;;;;;;;6.01;39.80;100926.88;4994261;28;97780;-73
2021/03/21 07:24:11;;;;;;;2.95;2.85;;;;;;;5.97;40.83;100930.25;4921169;28;96950;-72
2021/03/21 07:27:03;;;;;;;3.15;2.95;;;;;;;5.95;40.58;100926.66;4956342;28;96868;-71
2021/03/21 07:29:40;;;;;;;3.33;3.13;;;;;;;6.00;40.31;100946.22;4965870;28;98555;-71
2021/03/21 07:32:41;;;;;;;3.00;2.90;;;;;;;5.92;40.96;100950.28;4967953;28;99790;-72
2021/03/21 07:35:42;;;;;;;3.05;2.95;;;;;;;5.92;43.52;100949.38;4971353;28;97310;-71
2021/03/21 07:38:22;;;;;;;4.22;3.67;;;;;;;5.78;42.51;100942.59;4960403;28;96934;-73
2021/03/21 07:40:51;;;;;;;3.20;3.00;;;;;;;5.71;40.52;100936.16;4970593;28;96899;-71
2021/03/21 07:43:55;;;;;;;3.38;3.17;;;;;;;5.76;41.68;100931.97;4951013;28;98902;-71
2021/03/21 07:46:44;;;;;;;3.10;3.00;;;;;;;5.80;40.85;100941.84;4928027;28;97127;-72
2021/03/21 07:49:30;;;;;;;3.25;3.15;;;;;;;5.82;41.77;100941.91;4928288;28;97013;-72
2021/03/21 07:52:16;;;;;;;3.20;3.10;;;;;;;5.84;40.96;100927.03;4952768;28;97809;-72
2021/03/21 07:54:49;;;;;;;3.13;3.03;;;;;;;5.94;40.74;100924.81;4967930;28;98668;-71
2021/03/21 07:57:19;;;;;;;3.20;3.10;;;;;;;5.99;39.34;100933.88;4968226;28;96971;-72
2021/03/21 07:59:46;;;;;;;3.50;3.40;;;;;;;6.00;39.07;100914.53;4968070;28;96991;-73
2021/03/21 08:02:19;;;;;;;3.42;3.30;;;;;;;5.92;40.36;100929.16;4971595;28;97786;-73
2021/03/21 08:04:48;;;;;;;3.33;3.05;;;;;;;5.96;39.20;100907.31;4963271;28;98958;-73
2021/03/21 08:07:17;;;;;;;3.50;3.33;;;;;;;6.00;39.20;100918.91;4999894;28;96782;-72
2021/03/21 08:09:44;;;;;;;3.80;3.50;;;;;;;6.00;39.03;100925.09;4965149;28;96777;-73
2021/03/21 08:12:33;;;;;;;3.47;2.90;;;;;;;6.00;39.43;100921.53;4996694;27;96915;-74
2021/03/21 08:15:07;;;;;;;2.97;2.70;;;;;;;5.93;38.97;100924.78;4969577;28;98887;-73
2021/03/21 08:17:40;;;;;;;4.40;4.00;;;;;;;5.96;39.45;100944.28;4966558;28;97228;-74
2021/03/21 08:20:15;;;;;;;3.33;3.08;;;;;;;5.97;38.46;100924.97;5005720;27;97718;-72
2021/03/21 08:22:45;;;;;;;5.10;3.30;;;;;;;5.99;38.52;100944.44;4970464;28;98540;-72
2021/03/21 08:25:21;;;;;;;2.90;2.70;;;;;;;6.00;38.19;100926.81;4972509;28;96962;-73
2021/03/21 08:27:51;;;;;;;4.85;2.97;;;;;;;6.09;38.07;100933.41;5004166;28;96711;-72
2021/03/21 08:30:19;;;;;;;8.45;3.55;;;;;;;6.05;37.83;100927.94;4972897;28;96768;-72
2021/03/21 08:32:57;;;;;;;6.22;3.30;;;;;;;6.01;37.65;100939.22;4975540;28;97849;-72
2021/03/21 08:35:27;;;;;;;7.68;3.80;;;;;;;5.98;37.93;100936.41;4975736;28;99055;-73
2021/03/21 08:37:55;;;;;;;13.30;3.80;;;;;;;6.00;37.72;100951.50;4973888;28;96889;-73
2021/03/21 08:40:31;;;;;;;12.45;4.15;;;;;;;6.00;37.34;100958.53;4971022;28;96875;-72
2021/03/21 08:43:13;;;;;;;11.52;4.38;;;;;;;5.92;36.34;100971.41;4969262;28;99716;-72
2021/03/21 08:45:41;;;;;;;10.75;4.25;;;;;;;5.89;37.09;100954.53;4954939;28;98468;-73
2021/03/21 08:48:21;;;;;;;13.02;4.38;;;;;;;5.82;36.48;100952.47;4988974;28;96743;-73
2021/03/21 08:51:00;;;;;;;11.40;3.80;;;;;;;5.68;37.05;100961.53;4973264;28;97125;-72
2021/03/21 08:53:34;;;;;;;10.52;4.47;;;;;;;5.59;36.69;100948.84;4974143;28;97197;-72
2021/03/21 08:56:14;;;;;;;17.85;5.00;;;;;;;5.72;35.87;100945.00;5006629;27;98476;-72
2021/03/21 08:58:41;;;;;;;15.15;4.53;;;;;;;5.74;36.65;100946.84;4950987;28;97042;-72
2021/03/21 09:01:10;;;;;;;16.83;4.72;;;;;;;5.71;36.92;100949.38;4975758;28;96696;-73
2021/03/21 09:03:42;;;;;;;13.75;4.47;;;;;;;5.75;36.65;100980.34;4999001;28;97554;-73
2021/03/21 09:06:26;;;;;;;17.77;5.22;;;;;;;5.69;36.49;100964.22;4970446;28;100450;-72
2021/03/21 09:08:53;;;;;;;10.30;4.05;;;;;;;5.63;36.88;100969.25;4969311;28;96874;-73
2021/03/21 09:11:34;;;;;;;13.88;5.20;;;;;;;5.52;36.26;100962.59;4974898;28;96828;-72
2021/03/21 09:14:04;;;;;;;12.65;4.72;;;;;;;5.64;36.60;100971.06;5007260;28;98011;-72
2021/03/21 09:16:31;;;;;;;13.95;4.68;;;;;;;5.61;36.87;100977.94;4973091;28;100541;-72
2021/03/21 09:19:18;;;;;;;14.98;5.50;;;;;;;5.48;36.69;100980.88;4974125;28;96991;-72
2021/03/21 09:21:46;;;;;;;11.27;5.65;;;;;;;5.49;36.84;100975.66;4979057;28;96861;-73
2021/03/21 09:24:21;;;;;;;15.25;4.60;;;;;;;5.51;36.57;100992.47;4968959;28;98069;-73
2021/03/21 09:26:48;;;;;;;9.52;5.22;;;;;;;5.58;36.81;100978.69;4968090;28;97100;-73
2021/03/21 09:29:19;;;;;;;16.10;4.60;;;;;;;5.61;36.40;100983.22;4985373;28;97204;-72
2021/03/21 09:31:47;;;;;;;18.73;6.10;;;;;;;5.56;36.74;100980.38;5002469;28;97375;-71
2021/03/21 09:34:21;;;;;;;11.82;4.50;;;;;;;5.62;36.41;100988.56;4967893;28;97555;-73
2021/03/21 09:36:52;;;;;;;16.77;6.25;;;;;;;5.62;36.51;100985.94;5002651;27;98387;-72
2021/03/21 09:39:25;;;;;;;14.18;4.97;;;;;;;5.61;36.48;101001.69;5003213;28;98351;-72
2021/03/21 09:41:53;;;;;;;8.85;4.55;;;;;;;5.55;36.62;101004.06;4955512;28;96986;-73
2021/03/21 09:44:25;;;;;;;13.32;5.70;;;;;;;5.55;36.63;100999.69;4984532;28;98344;-72
2021/03/21 09:46:58;;;;;;;14.73;4.45;;;;;;;5.59;36.66;101000.72;5004305;28;98500;-72
2021/03/21 09:49:35;;;;;;;17.40;4.90;;;;;;;5.50;36.96;101009.16;4966492;28;96896;-73
2021/03/21 09:52:12;;;;;;;13.85;4.72;;;;;;;5.46;37.00;101008.94;4969362;28;96833;-72
2021/03/21 09:54:44;;;;;;;17.52;4.88;;;;;;;5.47;36.92;101013.34;4966745;28;99619;-71
2021/03/21 09:57:32;;;;;;;16.85;4.82;;;;;;;5.55;37.02;101026.09;4973383;28;98585;-72
2021/03/21 10:00:04;;;;;;;17.92;5.15;;;;;;;5.60;36.69;101021.91;4972918;28;96957;-71
2021/03/21 10:02:43;;;;;;;13.52;5.28;;;;;;;5.58;37.25;101035.88;4967203;28;97455;-72
2021/03/21 10:05:22;;;;;;;15.57;4.82;;;;;;;5.51;37.48;101029.41;4967045;28;97669;-75
2021/03/21 10:07:51;;;;;;;13.38;4.82;;;;;;;5.50;36.91;101035.53;4957064;28;98732;-72
2021/03/21 10:10:21;;;;;;;23.52;6.13;;;;;;;5.44;37.27;101035.25;4964706;28;97857;-72
2021/03/21 10:12:50;;;;;;;16.10;5.32;;;;;;;5.45;36.79;101047.59;5003730;28;96841;-71
2021/03/21 10:15:22;;;;;;;17.33;5.07;;;;;;;5.41;37.32;101044.78;4966683;28;97844;-72
2021/03/21 10:17:55;;;;;;;19.13;5.10;;;;;;;5.47;37.13;101040.66;4969435;28;97433;-74
2021/03/21 10:20:54;;;;;;;13.70;5.20;;;;;;;5.55;37.61;101054.22;4997062;28;97371;-73
2021/03/21 10:23:58;;;;;;;17.10;5.85;;;;;;;5.63;37.67;101045.78;4944785;28;96964;-73
2021/03/21 10:26:27;;;;;;;16.30;5.35;;;;;;;5.74;36.71;101038.38;4973575;28;97852;-75
2021/03/21 10:28:55;;;;;;;20.98;5.18;;;;;;;5.69;36.88;101048.72;4969566;28;96896;-70
2021/03/21 10:31:31;;;;;;;14.88;5.07;;;;;;;5.85;37.19;101042.41;4958014;28;96946;-75
2021/03/21 10:34:39;;;;;;;19.98;6.38;;;;;;;5.77;37.99;101044.69;4961946;28;97478;-74
2021/03/21 10:37:10;;;;;;;15.93;5.25;;;;;;;5.79;36.80;101053.59;4933951;28;98096;-73
2021/03/21 10:39:55;;;;;;;20.02;4.90;;;;;;;5.68;37.72;101049.56;5000420;27;98658;-72
2021/03/21 10:42:44;;;;;;;16.58;5.50;;;;;;;5.72;38.23;101046.19;4982999;28;96841;-72
2021/03/21 10:45:13;;;;;;;20.27;5.75;;;;;;;5.80;37.01;101042.19;4977795;28;96832;-73
2021/03/21 10:47:48;;;;;;;17.83;5.00;;;;;;;5.86;36.94;101047.75;4999317;27;97569;-72
2021/03/21 10:50:49;;;;;;;17.33;5.28;;;;;;;5.91;37.42;101042.66;4975557;28;96997;-72
2021/03/21 10:53:24;;;;;;;21.92;5.47;;;;;;;5.91;36.82;101037.38;4966220;28;96995;-72
2021/03/21 10:56:06;;;;;;;18.35;5.22;;;;;;;6.06;37.27;101028.38;4966240;28;97494;-72
2021/03/21 10:58:57;;;;;;;19.05;6.97;;;;;;;6.15;37.25;101028.78;4970135;28;98547;-75
2021/03/21 11:01:38;;;;;;;20.77;5.57;;;;;;;6.19;37.22;101014.88;4999763;27;98335;-72
2021/03/21 11:04:32;;;;;;;10.02;4.90;;;;;;;6.29;37.71;101020.56;4961598;28;97084;-73
2021/03/21 11:07:10;;;;;;;15.77;5.45;;;;;;;6.36;37.07;101012.94;4953740;28;97519;-72
2021/03/21 11:09:50;;;;;;;18.42;5.90;;;;;;;6.52;36.54;100995.97;4968886;28;98495;-72
2021/03/21 11:12:28;;;;;;;22.63;5.65;;;;;;;6.59;36.46;100995.38;4993235;28;99174;-71
2021/03/21 11:14:55;;;;;;;12.02;4.57;;;;;;;6.66;36.26;100992.13;4982766;28;97274;-72
2021/03/21 11:17:25;;;;;;;14.70;5.30;;;;;;;6.71;36.20;100990.56;5003105;28;97056;-72
2021/03/21 11:19:56;;;;;;;16.98;5.43;;;;;;;6.80;35.94;100990.94;4967647;28;98489;-72
2021/03/21 11:22:35;;;;;;;17.67;5.07;;;;;;;6.98;35.76;101007.56;4998519;28;100611;-72
2021/03/21 11:25:14;;;;;;;14.25;5.72;;;;;;;7.10;35.61;101029.19;5001078;28;97017;-72
2021/03/21 11:27:50;;;;;;;16.13;5.20;;;;;;;7.14;35.92;101023.19;4969119;28;97163;-72
2021/03/21 11:30:26;;;;;;;19.10;5.70;;;;;;;7.30;35.18;101020.28;4960315;28;100648;-72
2021/03/21 11:32:53;;;;;;;16.23;5.25;;;;;;;7.31;35.76;101022.06;4966740;28;97622;-72
2021/03/21 11:35:43;;;;;;;18.88;5.93;;;;;;;7.40;35.03;101019.75;4970228;28;97506;-72
2021/03/21 11:38:27;;;;;;;13.43;4.88;;;;;;;7.37;35.90;101029.34;4953166;28;96791;-72
2021/03/21 11:40:55;;;;;;;12.90;5.18;;;;;;;7.42;35.56;101020.75;4970756;28;97909;-73
2021/03/21 11:43:27;;;;;;;23.58;6.07;;;;;;;7.58;35.41;101025.81;4968997;28;97910;-73
2021/03/21 11:45:55;;;;;;;17.25;5.07;;;;;;;7.58;35.19;101020.50;4954155;28;96833;-72
2021/03/21 11:48:31;;;;;;;20.58;6.32;;;;;;;7.79;35.11;101017.72;4970487;28;96885;-72
2021/03/21 11:50:59;;;;;;;17.70;5.65;;;;;;;7.83;35.01;101017.91;4967361;28;97648;-72
2021/03/21 11:53:29;;;;;;;16.65;5.68;;;;;;;7.88;35.13;101026.91;4953359;28;98919;-72
2021/03/21 11:56:02;;;;;;;20.23;5.68;;;;;;;7.82;35.03;101021.38;4952332;28;96974;-72
2021/03/21 11:58:32;;;;;;;20.00;5.72;;;;;;;7.83;35.07;101036.44;4977809;28;96872;-72
2021/03/21 12:01:01;;;;;;;16.85;5.38;;;;;;;7.86;34.97;101019.75;4967936;28;96811;-73
2021/03/21 12:03:29;;;;;;;18.20;5.55;;;;;;;7.90;34.94;101041.13;4950006;28;99658;-72
2021/03/21 12:06:21;;;;;;;15.88;5.47;;;;;;;7.82;34.86;101023.16;4966597;28;96945;-72
2021/03/21 12:08:48;;;;;;;18.60;5.32;;;;;;;7.89;34.91;101018.09;4952928;28;96877;-72
2021/03/21 12:11:17;;;;;;;13.30;5.28;;;;;;;7.98;34.67;101021.06;4964545;28;96893;-72
2021/03/21 12:13:45;;;;;;;21.23;5.55;;;;;;;8.09;34.67;101017.03;4990778;28;100345;-72